sensor_id;sensor_type;location;lat;lon;timestamp;P1;durP1;ratioP1;P2;durP2;ratioP2
7511;SDS011;9999;48.780;9.146;2023-04-06T00:00:08;6.93;;;3.93;;
7511;SDS011;9999;48.780;9.146;2023-04-06T00:02:36;4.13;;;3.27;;
7511;SDS011;9999;48.780;9.146;2023-04-06T00:05:03;5.07;;;4.13;;
7511;SDS011;9999;48.780;9.146;2023-04-06T00:07:31;4.63;;;3.57;;
7511;SDS011;9999;48.780;9.146;2023-04-06T00:09:58;6.17;;;3.63;;
7511;SDS011;9999;48.780;9.146;2023-04-06T00:12:27;5.43;;;4.13;;
7511;SDS011;9999;48.780;9.146;2023-04-06T00:14:53;6.30;;;4.03;;
7511;SDS011;9999;48.780;9.146;2023-04-06T00:17:20;4.53;;;4.00;;
7511;SDS011;9999;48.780;9.146;2023-04-06T00:19:47;6.90;;;4.50;;
7511;SDS011;9999;48.780;9.146;2023-04-06T00:22:14;7.37;;;4.33;;
7511;SDS011;9999;48.780;9.146;2023-04-06T00:24:40;4.53;;;3.80;;
7511;SDS011;9999;48.780;9.146;2023-04-06T00:27:07;6.63;;;4.20;;
7511;SDS011;9999;48.780;9.146;2023-04-06T00:29:35;6.80;;;3.97;;
7511;SDS011;9999;48.780;9.146;2023-04-06T00:32:03;5.57;;;4.23;;
7511;SDS011;9999;48.780;9.146;2023-04-06T00:34:30;6.00;;;3.80;;
7511;SDS011;9999;48.780;9.146;2023-04-06T00:36:57;7.80;;;4.57;;
7511;SDS011;9999;48.780;9.146;2023-04-06T00:39:24;6.63;;;4.37;;
7511;SDS011;9999;48.780;9.146;2023-04-06T00:41:51;6.07;;;4.40;;
7511;SDS011;9999;48.780;9.146;2023-04-06T00:44:20;4.93;;;3.87;;
7511;SDS011;9999;48.780;9.146;2023-04-06T00:46:49;5.53;;;4.17;;
7511;SDS011;9999;48.780;9.146;2023-04-06T00:49:16;4.47;;;3.63;;
7511;SDS011;9999;48.780;9.146;2023-04-06T00:51:43;4.43;;;3.90;;
7511;SDS011;9999;48.780;9.146;2023-04-06T00:54:10;7.30;;;3.87;;
7511;SDS011;9999;48.780;9.146;2023-04-06T00:56:38;6.03;;;4.10;;
7511;SDS011;9999;48.780;9.146;2023-04-06T00:59:04;4.97;;;3.60;;
7511;SDS011;9999;48.780;9.146;2023-04-06T01:01:31;5.00;;;3.47;;
7511;SDS011;9999;48.780;9.146;2023-04-06T01:04:04;4.93;;;4.17;;
7511;SDS011;9999;48.780;9.146;2023-04-06T01:06:37;6.37;;;4.10;;
7511;SDS011;9999;48.780;9.146;2023-04-06T01:09:05;8.43;;;4.17;;
7511;SDS011;9999;48.780;9.146;2023-04-06T01:11:32;6.83;;;4.10;;
7511;SDS011;9999;48.780;9.146;2023-04-06T01:14:02;5.23;;;3.80;;
7511;SDS011;9999;48.780;9.146;2023-04-06T01:16:45;5.77;;;4.40;;
7511;SDS011;9999;48.780;9.146;2023-04-06T01:19:17;5.67;;;3.47;;
7511;SDS011;9999;48.780;9.146;2023-04-06T01:21:48;8.23;;;4.13;;
7511;SDS011;9999;48.780;9.146;2023-04-06T01:24:43;6.87;;;4.53;;
7511;SDS011;9999;48.780;9.146;2023-04-06T01:27:21;6.13;;;4.10;;
7511;SDS011;9999;48.780;9.146;2023-04-06T01:29:48;5.10;;;4.53;;
7511;SDS011;9999;48.780;9.146;2023-04-06T01:32:25;5.07;;;3.67;;
7511;SDS011;9999;48.780;9.146;2023-04-06T01:34:52;6.77;;;4.33;;
7511;SDS011;9999;48.780;9.146;2023-04-06T01:37:20;5.57;;;4.20;;
7511;SDS011;9999;48.780;9.146;2023-04-06T01:39:48;5.87;;;4.43;;
7511;SDS011;9999;48.780;9.146;2023-04-06T01:42:25;6.73;;;4.67;;
7511;SDS011;9999;48.780;9.146;2023-04-06T01:44:53;6.70;;;4.23;;
7511;SDS011;9999;48.780;9.146;2023-04-06T01:47:20;5.07;;;3.43;;
7511;SDS011;9999;48.780;9.146;2023-04-06T01:49:47;6.13;;;4.23;;
7511;SDS011;9999;48.780;9.146;2023-04-06T01:52:14;6.63;;;4.00;;
7511;SDS011;9999;48.780;9.146;2023-04-06T01:54:48;7.27;;;3.90;;
7511;SDS011;9999;48.780;9.146;2023-04-06T01:57:46;6.80;;;4.27;;
7511;SDS011;9999;48.780;9.146;2023-04-06T02:00:21;5.97;;;4.00;;
7511;SDS011;9999;48.780;9.146;2023-04-06T02:02:52;4.43;;;4.03;;
7511;SDS011;9999;48.780;9.146;2023-04-06T02:05:24;5.93;;;3.50;;
7511;SDS011;9999;48.780;9.146;2023-04-06T02:07:52;5.00;;;3.90;;
7511;SDS011;9999;48.780;9.146;2023-04-06T02:10:29;5.47;;;3.80;;
7511;SDS011;9999;48.780;9.146;2023-04-06T02:12:58;5.17;;;4.10;;
7511;SDS011;9999;48.780;9.146;2023-04-06T02:15:26;8.07;;;3.97;;
7511;SDS011;9999;48.780;9.146;2023-04-06T02:17:53;5.80;;;3.87;;
7511;SDS011;9999;48.780;9.146;2023-04-06T02:20:20;7.27;;;4.30;;
7511;SDS011;9999;48.780;9.146;2023-04-06T02:22:47;5.80;;;4.57;;
7511;SDS011;9999;48.780;9.146;2023-04-06T02:25:14;6.93;;;3.97;;
7511;SDS011;9999;48.780;9.146;2023-04-06T02:27:42;5.80;;;4.20;;
7511;SDS011;9999;48.780;9.146;2023-04-06T02:30:10;7.73;;;5.03;;
7511;SDS011;9999;48.780;9.146;2023-04-06T02:32:37;6.43;;;3.93;;
7511;SDS011;9999;48.780;9.146;2023-04-06T02:35:04;6.77;;;4.80;;
7511;SDS011;9999;48.780;9.146;2023-04-06T02:37:33;4.90;;;3.93;;
7511;SDS011;9999;48.780;9.146;2023-04-06T02:39:59;4.10;;;3.70;;
7511;SDS011;9999;48.780;9.146;2023-04-06T02:42:28;7.07;;;4.37;;
7511;SDS011;9999;48.780;9.146;2023-04-06T02:44:57;7.57;;;3.90;;
7511;SDS011;9999;48.780;9.146;2023-04-06T02:47:28;4.50;;;3.87;;
7511;SDS011;9999;48.780;9.146;2023-04-06T02:49:54;5.33;;;4.13;;
7511;SDS011;9999;48.780;9.146;2023-04-06T02:52:21;8.53;;;4.17;;
7511;SDS011;9999;48.780;9.146;2023-04-06T02:54:48;5.43;;;4.17;;
7511;SDS011;9999;48.780;9.146;2023-04-06T02:57:21;6.53;;;4.33;;
7511;SDS011;9999;48.780;9.146;2023-04-06T02:59:48;7.20;;;4.27;;
7511;SDS011;9999;48.780;9.146;2023-04-06T03:02:25;6.57;;;4.83;;
7511;SDS011;9999;48.780;9.146;2023-04-06T03:04:59;6.90;;;4.03;;
7511;SDS011;9999;48.780;9.146;2023-04-06T03:07:32;4.47;;;3.87;;
7511;SDS011;9999;48.780;9.146;2023-04-06T03:10:02;5.90;;;4.20;;
7511;SDS011;9999;48.780;9.146;2023-04-06T03:12:31;5.93;;;4.60;;
7511;SDS011;9999;48.780;9.146;2023-04-06T03:15:20;5.57;;;4.27;;
7511;SDS011;9999;48.780;9.146;2023-04-06T03:17:53;4.37;;;3.90;;
7511;SDS011;9999;48.780;9.146;2023-04-06T03:20:35;4.53;;;4.03;;
7511;SDS011;9999;48.780;9.146;2023-04-06T03:23:02;7.17;;;4.50;;
7511;SDS011;9999;48.780;9.146;2023-04-06T03:25:33;5.00;;;4.13;;
7511;SDS011;9999;48.780;9.146;2023-04-06T03:28:03;7.43;;;3.30;;
7511;SDS011;9999;48.780;9.146;2023-04-06T03:30:34;6.17;;;4.07;;
7511;SDS011;9999;48.780;9.146;2023-04-06T03:33:02;5.13;;;4.30;;
7511;SDS011;9999;48.780;9.146;2023-04-06T03:35:33;4.97;;;4.13;;
7511;SDS011;9999;48.780;9.146;2023-04-06T03:38:01;5.63;;;5.00;;
7511;SDS011;9999;48.780;9.146;2023-04-06T03:40:29;5.50;;;4.40;;
7511;SDS011;9999;48.780;9.146;2023-04-06T03:42:55;6.43;;;4.73;;
7511;SDS011;9999;48.780;9.146;2023-04-06T03:45:22;6.27;;;4.53;;
7511;SDS011;9999;48.780;9.146;2023-04-06T03:47:49;5.53;;;4.37;;
7511;SDS011;9999;48.780;9.146;2023-04-06T03:50:19;6.27;;;4.10;;
7511;SDS011;9999;48.780;9.146;2023-04-06T03:52:46;5.47;;;4.30;;
7511;SDS011;9999;48.780;9.146;2023-04-06T03:55:12;6.13;;;4.30;;
7511;SDS011;9999;48.780;9.146;2023-04-06T03:57:39;4.90;;;4.07;;
7511;SDS011;9999;48.780;9.146;2023-04-06T04:00:07;6.60;;;4.37;;
7511;SDS011;9999;48.780;9.146;2023-04-06T04:02:40;7.23;;;5.03;;
7511;SDS011;9999;48.780;9.146;2023-04-06T04:05:07;6.67;;;4.03;;
7511;SDS011;9999;48.780;9.146;2023-04-06T04:07:37;5.90;;;4.00;;
7511;SDS011;9999;48.780;9.146;2023-04-06T04:10:05;4.60;;;3.70;;
7511;SDS011;9999;48.780;9.146;2023-04-06T04:12:32;5.43;;;3.87;;
7511;SDS011;9999;48.780;9.146;2023-04-06T04:14:59;6.57;;;4.43;;
7511;SDS011;9999;48.780;9.146;2023-04-06T04:17:26;6.37;;;4.10;;
7511;SDS011;9999;48.780;9.146;2023-04-06T04:19:53;10.27;;;5.70;;
7511;SDS011;9999;48.780;9.146;2023-04-06T04:22:20;5.87;;;4.07;;
7511;SDS011;9999;48.780;9.146;2023-04-06T04:24:48;5.87;;;4.63;;
7511;SDS011;9999;48.780;9.146;2023-04-06T04:27:15;6.50;;;4.47;;
7511;SDS011;9999;48.780;9.146;2023-04-06T04:29:42;4.87;;;3.70;;
7511;SDS011;9999;48.780;9.146;2023-04-06T04:32:11;5.43;;;4.37;;
7511;SDS011;9999;48.780;9.146;2023-04-06T04:34:39;5.53;;;4.30;;
7511;SDS011;9999;48.780;9.146;2023-04-06T04:37:09;5.00;;;4.13;;
7511;SDS011;9999;48.780;9.146;2023-04-06T04:39:46;4.90;;;3.83;;
7511;SDS011;9999;48.780;9.146;2023-04-06T04:42:14;7.63;;;3.77;;
7511;SDS011;9999;48.780;9.146;2023-04-06T04:44:46;6.10;;;4.10;;
7511;SDS011;9999;48.780;9.146;2023-04-06T04:47:18;7.03;;;4.93;;
7511;SDS011;9999;48.780;9.146;2023-04-06T04:49:46;6.37;;;4.50;;
7511;SDS011;9999;48.780;9.146;2023-04-06T04:52:19;8.27;;;4.20;;
7511;SDS011;9999;48.780;9.146;2023-04-06T04:54:54;7.77;;;4.43;;
7511;SDS011;9999;48.780;9.146;2023-04-06T04:57:26;6.53;;;4.53;;
7511;SDS011;9999;48.780;9.146;2023-04-06T04:59:53;8.33;;;4.50;;
7511;SDS011;9999;48.780;9.146;2023-04-06T05:02:21;5.87;;;5.23;;
7511;SDS011;9999;48.780;9.146;2023-04-06T05:04:56;5.80;;;4.50;;
7511;SDS011;9999;48.780;9.146;2023-04-06T05:07:25;5.67;;;4.43;;
7511;SDS011;9999;48.780;9.146;2023-04-06T05:09:54;5.37;;;4.60;;
7511;SDS011;9999;48.780;9.146;2023-04-06T05:12:24;5.77;;;3.83;;
7511;SDS011;9999;48.780;9.146;2023-04-06T05:15:02;6.07;;;4.00;;
7511;SDS011;9999;48.780;9.146;2023-04-06T05:17:30;7.47;;;4.07;;
7511;SDS011;9999;48.780;9.146;2023-04-06T05:19:58;7.03;;;4.27;;
7511;SDS011;9999;48.780;9.146;2023-04-06T05:22:26;6.63;;;4.27;;
7511;SDS011;9999;48.780;9.146;2023-04-06T05:25:02;7.33;;;4.17;;
7511;SDS011;9999;48.780;9.146;2023-04-06T05:27:31;7.53;;;5.20;;
7511;SDS011;9999;48.780;9.146;2023-04-06T05:30:03;6.07;;;4.73;;
7511;SDS011;9999;48.780;9.146;2023-04-06T05:32:36;10.97;;;4.43;;
7511;SDS011;9999;48.780;9.146;2023-04-06T05:35:03;5.70;;;4.13;;
7511;SDS011;9999;48.780;9.146;2023-04-06T05:37:32;7.00;;;5.60;;
7511;SDS011;9999;48.780;9.146;2023-04-06T05:39:59;5.93;;;4.37;;
7511;SDS011;9999;48.780;9.146;2023-04-06T05:42:26;8.93;;;4.30;;
7511;SDS011;9999;48.780;9.146;2023-04-06T05:44:57;6.77;;;4.73;;
7511;SDS011;9999;48.780;9.146;2023-04-06T05:47:25;5.80;;;4.47;;
7511;SDS011;9999;48.780;9.146;2023-04-06T05:50:00;7.37;;;5.03;;
7511;SDS011;9999;48.780;9.146;2023-04-06T05:52:50;7.90;;;4.57;;
7511;SDS011;9999;48.780;9.146;2023-04-06T05:55:20;6.13;;;4.33;;
7511;SDS011;9999;48.780;9.146;2023-04-06T05:57:54;6.47;;;4.80;;
7511;SDS011;9999;48.780;9.146;2023-04-06T06:00:22;9.23;;;4.90;;
7511;SDS011;9999;48.780;9.146;2023-04-06T06:02:59;7.20;;;4.90;;
7511;SDS011;9999;48.780;9.146;2023-04-06T06:05:29;7.30;;;4.90;;
7511;SDS011;9999;48.780;9.146;2023-04-06T06:08:02;7.87;;;5.00;;
7511;SDS011;9999;48.780;9.146;2023-04-06T06:10:29;6.27;;;4.20;;
7511;SDS011;9999;48.780;9.146;2023-04-06T06:12:56;8.27;;;4.73;;
7511;SDS011;9999;48.780;9.146;2023-04-06T06:15:25;11.27;;;6.33;;
7511;SDS011;9999;48.780;9.146;2023-04-06T06:17:51;6.53;;;4.17;;
7511;SDS011;9999;48.780;9.146;2023-04-06T06:20:18;7.93;;;5.30;;
7511;SDS011;9999;48.780;9.146;2023-04-06T06:22:46;8.63;;;5.57;;
7511;SDS011;9999;48.780;9.146;2023-04-06T06:25:17;6.10;;;4.53;;
7511;SDS011;9999;48.780;9.146;2023-04-06T06:27:46;7.53;;;5.20;;
7511;SDS011;9999;48.780;9.146;2023-04-06T06:30:15;6.53;;;4.60;;
7511;SDS011;9999;48.780;9.146;2023-04-06T06:32:44;7.00;;;5.13;;
7511;SDS011;9999;48.780;9.146;2023-04-06T06:35:11;15.60;;;6.13;;
7511;SDS011;9999;48.780;9.146;2023-04-06T06:37:38;6.93;;;5.17;;
7511;SDS011;9999;48.780;9.146;2023-04-06T06:40:06;8.20;;;5.93;;
7511;SDS011;9999;48.780;9.146;2023-04-06T06:42:34;8.23;;;5.90;;
7511;SDS011;9999;48.780;9.146;2023-04-06T06:45:09;8.43;;;5.37;;
7511;SDS011;9999;48.780;9.146;2023-04-06T06:47:36;7.57;;;5.07;;
7511;SDS011;9999;48.780;9.146;2023-04-06T06:50:04;12.13;;;6.03;;
7511;SDS011;9999;48.780;9.146;2023-04-06T06:52:32;7.67;;;4.80;;
7511;SDS011;9999;48.780;9.146;2023-04-06T06:54:59;11.10;;;5.63;;
7511;SDS011;9999;48.780;9.146;2023-04-06T06:57:27;7.07;;;5.07;;
7511;SDS011;9999;48.780;9.146;2023-04-06T06:59:54;7.07;;;5.33;;
7511;SDS011;9999;48.780;9.146;2023-04-06T07:02:22;7.20;;;5.00;;
7511;SDS011;9999;48.780;9.146;2023-04-06T07:04:49;10.07;;;5.00;;
7511;SDS011;9999;48.780;9.146;2023-04-06T07:07:17;6.53;;;4.70;;
7511;SDS011;9999;48.780;9.146;2023-04-06T07:09:44;8.87;;;5.00;;
7511;SDS011;9999;48.780;9.146;2023-04-06T07:12:11;8.10;;;5.07;;
7511;SDS011;9999;48.780;9.146;2023-04-06T07:14:38;9.37;;;5.77;;
7511;SDS011;9999;48.780;9.146;2023-04-06T07:17:05;24.00;;;5.40;;
7511;SDS011;9999;48.780;9.146;2023-04-06T07:19:32;9.00;;;5.33;;
7511;SDS011;9999;48.780;9.146;2023-04-06T07:21:59;6.33;;;4.77;;
7511;SDS011;9999;48.780;9.146;2023-04-06T07:24:28;7.97;;;4.87;;
7511;SDS011;9999;48.780;9.146;2023-04-06T07:26:55;9.23;;;4.57;;
7511;SDS011;9999;48.780;9.146;2023-04-06T07:29:23;9.50;;;5.30;;
7511;SDS011;9999;48.780;9.146;2023-04-06T07:31:50;8.53;;;5.43;;
7511;SDS011;9999;48.780;9.146;2023-04-06T07:34:17;6.87;;;5.07;;
7511;SDS011;9999;48.780;9.146;2023-04-06T07:36:44;8.47;;;4.93;;
7511;SDS011;9999;48.780;9.146;2023-04-06T07:39:10;8.60;;;6.17;;
7511;SDS011;9999;48.780;9.146;2023-04-06T07:41:40;9.50;;;5.90;;
7511;SDS011;9999;48.780;9.146;2023-04-06T07:44:07;6.33;;;5.13;;
7511;SDS011;9999;48.780;9.146;2023-04-06T07:46:33;10.70;;;6.10;;
7511;SDS011;9999;48.780;9.146;2023-04-06T07:49:01;8.33;;;5.90;;
7511;SDS011;9999;48.780;9.146;2023-04-06T07:51:30;9.73;;;6.37;;
7511;SDS011;9999;48.780;9.146;2023-04-06T07:53:57;10.60;;;5.72;;
7511;SDS011;9999;48.780;9.146;2023-04-06T07:56:24;12.00;;;5.10;;
7511;SDS011;9999;48.780;9.146;2023-04-06T07:58:53;10.82;;;6.30;;
7511;SDS011;9999;48.780;9.146;2023-04-06T08:01:21;8.98;;;5.90;;
7511;SDS011;9999;48.780;9.146;2023-04-06T08:03:48;11.35;;;5.72;;
7511;SDS011;9999;48.780;9.146;2023-04-06T08:06:15;10.48;;;6.85;;
7511;SDS011;9999;48.780;9.146;2023-04-06T08:08:42;8.85;;;5.68;;
7511;SDS011;9999;48.780;9.146;2023-04-06T08:11:09;7.93;;;5.25;;
7511;SDS011;9999;48.780;9.146;2023-04-06T08:13:36;9.88;;;6.15;;
7511;SDS011;9999;48.780;9.146;2023-04-06T08:16:05;10.07;;;5.50;;
7511;SDS011;9999;48.780;9.146;2023-04-06T08:18:32;11.65;;;6.40;;
7511;SDS011;9999;48.780;9.146;2023-04-06T08:20:59;9.20;;;6.05;;
7511;SDS011;9999;48.780;9.146;2023-04-06T08:23:26;10.60;;;5.10;;
7511;SDS011;9999;48.780;9.146;2023-04-06T08:25:52;9.65;;;5.88;;
7511;SDS011;9999;48.780;9.146;2023-04-06T08:28:21;5.82;;;5.20;;
7511;SDS011;9999;48.780;9.146;2023-04-06T08:30:48;9.02;;;5.95;;
7511;SDS011;9999;48.780;9.146;2023-04-06T08:33:16;12.02;;;5.28;;
7511;SDS011;9999;48.780;9.146;2023-04-06T08:35:43;8.32;;;5.97;;
7511;SDS011;9999;48.780;9.146;2023-04-06T08:38:10;7.85;;;5.50;;
7511;SDS011;9999;48.780;9.146;2023-04-06T08:40:37;8.70;;;5.85;;
7511;SDS011;9999;48.780;9.146;2023-04-06T08:43:06;8.52;;;6.25;;
7511;SDS011;9999;48.780;9.146;2023-04-06T08:45:36;10.25;;;5.78;;
7511;SDS011;9999;48.780;9.146;2023-04-06T08:48:04;10.30;;;5.63;;
7511;SDS011;9999;48.780;9.146;2023-04-06T08:50:33;16.25;;;5.50;;
7511;SDS011;9999;48.780;9.146;2023-04-06T08:53:00;9.38;;;5.28;;
7511;SDS011;9999;48.780;9.146;2023-04-06T08:55:28;8.02;;;5.38;;
7511;SDS011;9999;48.780;9.146;2023-04-06T08:57:55;10.77;;;6.00;;
7511;SDS011;9999;48.780;9.146;2023-04-06T09:00:23;10.43;;;6.55;;
7511;SDS011;9999;48.780;9.146;2023-04-06T09:02:51;11.15;;;6.13;;
7511;SDS011;9999;48.780;9.146;2023-04-06T09:05:21;7.65;;;5.40;;
7511;SDS011;9999;48.780;9.146;2023-04-06T09:07:52;9.35;;;5.25;;
7511;SDS011;9999;48.780;9.146;2023-04-06T09:10:20;7.75;;;5.53;;
7511;SDS011;9999;48.780;9.146;2023-04-06T09:12:48;9.82;;;5.35;;
7511;SDS011;9999;48.780;9.146;2023-04-06T09:15:19;7.75;;;5.15;;
7511;SDS011;9999;48.780;9.146;2023-04-06T09:17:46;10.07;;;5.43;;
7511;SDS011;9999;48.780;9.146;2023-04-06T09:20:13;8.13;;;5.30;;
7511;SDS011;9999;48.780;9.146;2023-04-06T09:22:42;10.27;;;5.70;;
7511;SDS011;9999;48.780;9.146;2023-04-06T09:25:17;10.93;;;6.05;;
7511;SDS011;9999;48.780;9.146;2023-04-06T09:27:46;7.30;;;5.30;;
7511;SDS011;9999;48.780;9.146;2023-04-06T09:30:13;8.95;;;5.50;;
7511;SDS011;9999;48.780;9.146;2023-04-06T09:32:44;6.40;;;4.60;;
7511;SDS011;9999;48.780;9.146;2023-04-06T09:35:12;9.27;;;5.20;;
7511;SDS011;9999;48.780;9.146;2023-04-06T09:37:39;5.97;;;4.32;;
7511;SDS011;9999;48.780;9.146;2023-04-06T09:40:06;8.05;;;4.53;;
7511;SDS011;9999;48.780;9.146;2023-04-06T09:42:35;5.30;;;4.30;;
7511;SDS011;9999;48.780;9.146;2023-04-06T09:45:02;7.45;;;5.03;;
7511;SDS011;9999;48.780;9.146;2023-04-06T09:47:30;6.80;;;5.03;;
7511;SDS011;9999;48.780;9.146;2023-04-06T09:49:58;7.70;;;5.30;;
7511;SDS011;9999;48.780;9.146;2023-04-06T09:52:26;8.60;;;5.45;;
7511;SDS011;9999;48.780;9.146;2023-04-06T09:54:58;7.18;;;4.95;;
7511;SDS011;9999;48.780;9.146;2023-04-06T09:57:29;6.75;;;4.45;;
7511;SDS011;9999;48.780;9.146;2023-04-06T10:00:05;7.78;;;4.57;;
7511;SDS011;9999;48.780;9.146;2023-04-06T10:02:36;8.13;;;4.90;;
7511;SDS011;9999;48.780;9.146;2023-04-06T10:05:13;6.80;;;3.85;;
7511;SDS011;9999;48.780;9.146;2023-04-06T10:07:46;7.32;;;4.97;;
7511;SDS011;9999;48.780;9.146;2023-04-06T10:10:15;7.30;;;4.28;;
7511;SDS011;9999;48.780;9.146;2023-04-06T10:12:44;7.25;;;4.63;;
7511;SDS011;9999;48.780;9.146;2023-04-06T10:15:13;8.43;;;5.05;;
7511;SDS011;9999;48.780;9.146;2023-04-06T10:17:40;9.10;;;5.40;;
7511;SDS011;9999;48.780;9.146;2023-04-06T10:20:09;7.63;;;4.68;;
7511;SDS011;9999;48.780;9.146;2023-04-06T10:22:41;7.93;;;4.68;;
7511;SDS011;9999;48.780;9.146;2023-04-06T10:25:15;8.52;;;4.90;;
7511;SDS011;9999;48.780;9.146;2023-04-06T10:27:44;7.90;;;5.13;;
7511;SDS011;9999;48.780;9.146;2023-04-06T10:30:11;6.82;;;4.55;;
7511;SDS011;9999;48.780;9.146;2023-04-06T10:32:42;10.48;;;4.32;;
7511;SDS011;9999;48.780;9.146;2023-04-06T10:35:09;6.55;;;4.18;;
7511;SDS011;9999;48.780;9.146;2023-04-06T10:37:48;7.47;;;4.63;;
7511;SDS011;9999;48.780;9.146;2023-04-06T10:40:20;6.85;;;4.68;;
7511;SDS011;9999;48.780;9.146;2023-04-06T10:42:51;6.93;;;4.30;;
7511;SDS011;9999;48.780;9.146;2023-04-06T10:45:19;8.98;;;3.80;;
7511;SDS011;9999;48.780;9.146;2023-04-06T10:47:46;6.47;;;4.05;;
7511;SDS011;9999;48.780;9.146;2023-04-06T10:50:14;4.93;;;4.10;;
7511;SDS011;9999;48.780;9.146;2023-04-06T10:52:43;5.53;;;3.92;;
7511;SDS011;9999;48.780;9.146;2023-04-06T10:55:11;6.35;;;3.90;;
7511;SDS011;9999;48.780;9.146;2023-04-06T10:57:39;9.27;;;4.65;;
7511;SDS011;9999;48.780;9.146;2023-04-06T11:00:08;4.72;;;3.22;;
7511;SDS011;9999;48.780;9.146;2023-04-06T11:02:37;5.20;;;3.80;;
7511;SDS011;9999;48.780;9.146;2023-04-06T11:05:04;5.55;;;4.18;;
7511;SDS011;9999;48.780;9.146;2023-04-06T11:07:32;6.78;;;4.15;;
7511;SDS011;9999;48.780;9.146;2023-04-06T11:10:00;5.88;;;4.35;;
7511;SDS011;9999;48.780;9.146;2023-04-06T11:12:27;6.15;;;4.25;;
7511;SDS011;9999;48.780;9.146;2023-04-06T11:14:56;5.63;;;3.35;;
7511;SDS011;9999;48.780;9.146;2023-04-06T11:17:30;8.13;;;4.15;;
7511;SDS011;9999;48.780;9.146;2023-04-06T11:19:58;6.25;;;4.15;;
7511;SDS011;9999;48.780;9.146;2023-04-06T11:22:25;7.13;;;4.57;;
7511;SDS011;9999;48.780;9.146;2023-04-06T11:24:53;5.30;;;3.45;;
7511;SDS011;9999;48.780;9.146;2023-04-06T11:27:30;6.47;;;4.15;;
7511;SDS011;9999;48.780;9.146;2023-04-06T11:29:58;6.95;;;3.30;;
7511;SDS011;9999;48.780;9.146;2023-04-06T11:32:25;6.35;;;3.70;;
7511;SDS011;9999;48.780;9.146;2023-04-06T11:34:53;7.60;;;3.47;;
7511;SDS011;9999;48.780;9.146;2023-04-06T11:37:20;4.20;;;2.95;;
7511;SDS011;9999;48.780;9.146;2023-04-06T11:39:47;4.95;;;3.50;;
7511;SDS011;9999;48.780;9.146;2023-04-06T11:42:25;4.63;;;3.28;;
7511;SDS011;9999;48.780;9.146;2023-04-06T11:44:55;7.43;;;4.20;;
7511;SDS011;9999;48.780;9.146;2023-04-06T11:47:27;4.38;;;3.45;;
7511;SDS011;9999;48.780;9.146;2023-04-06T11:50:04;5.30;;;4.20;;
7511;SDS011;9999;48.780;9.146;2023-04-06T11:52:32;7.03;;;4.10;;
7511;SDS011;9999;48.780;9.146;2023-04-06T11:55:09;4.72;;;3.70;;
7511;SDS011;9999;48.780;9.146;2023-04-06T11:57:37;4.60;;;3.88;;
7511;SDS011;9999;48.780;9.146;2023-04-06T12:00:04;6.25;;;3.47;;
7511;SDS011;9999;48.780;9.146;2023-04-06T12:02:32;5.00;;;3.67;;
7511;SDS011;9999;48.780;9.146;2023-04-06T12:05:00;5.50;;;3.72;;
7511;SDS011;9999;48.780;9.146;2023-04-06T12:07:28;5.65;;;3.83;;
7511;SDS011;9999;48.780;9.146;2023-04-06T12:09:55;3.80;;;3.28;;
7511;SDS011;9999;48.780;9.146;2023-04-06T12:12:22;4.38;;;3.55;;
7511;SDS011;9999;48.780;9.146;2023-04-06T12:14:49;5.38;;;3.22;;
7511;SDS011;9999;48.780;9.146;2023-04-06T12:17:16;4.68;;;3.42;;
7511;SDS011;9999;48.780;9.146;2023-04-06T12:19:42;5.75;;;3.58;;
7511;SDS011;9999;48.780;9.146;2023-04-06T12:22:11;3.80;;;3.42;;
7511;SDS011;9999;48.780;9.146;2023-04-06T12:24:38;5.28;;;3.85;;
7511;SDS011;9999;48.780;9.146;2023-04-06T12:27:05;5.82;;;3.63;;
7511;SDS011;9999;48.780;9.146;2023-04-06T12:29:32;6.25;;;3.97;;
7511;SDS011;9999;48.780;9.146;2023-04-06T12:31:59;4.45;;;3.92;;
7511;SDS011;9999;48.780;9.146;2023-04-06T12:34:26;7.05;;;4.20;;
7511;SDS011;9999;48.780;9.146;2023-04-06T12:36:53;4.10;;;2.90;;
7511;SDS011;9999;48.780;9.146;2023-04-06T12:39:22;5.30;;;3.50;;
7511;SDS011;9999;48.780;9.146;2023-04-06T12:41:50;5.13;;;2.97;;
7511;SDS011;9999;48.780;9.146;2023-04-06T12:44:17;5.50;;;4.10;;
7511;SDS011;9999;48.780;9.146;2023-04-06T12:46:44;5.15;;;3.90;;
7511;SDS011;9999;48.780;9.146;2023-04-06T12:49:11;6.93;;;3.13;;
7511;SDS011;9999;48.780;9.146;2023-04-06T12:51:38;4.68;;;2.90;;
7511;SDS011;9999;48.780;9.146;2023-04-06T12:54:05;3.42;;;2.97;;
7511;SDS011;9999;48.780;9.146;2023-04-06T12:56:33;4.38;;;3.47;;
7511;SDS011;9999;48.780;9.146;2023-04-06T12:59:00;6.35;;;3.15;;
7511;SDS011;9999;48.780;9.146;2023-04-06T13:01:27;10.50;;;3.83;;
7511;SDS011;9999;48.780;9.146;2023-04-06T13:03:54;4.55;;;3.38;;
7511;SDS011;9999;48.780;9.146;2023-04-06T13:06:21;3.92;;;3.13;;
7511;SDS011;9999;48.780;9.146;2023-04-06T13:08:52;4.50;;;3.15;;
7511;SDS011;9999;48.780;9.146;2023-04-06T13:11:19;5.57;;;3.53;;
7511;SDS011;9999;48.780;9.146;2023-04-06T13:13:50;8.80;;;4.15;;
7511;SDS011;9999;48.780;9.146;2023-04-06T13:16:17;4.07;;;2.80;;
7511;SDS011;9999;48.780;9.146;2023-04-06T13:18:46;7.45;;;3.40;;
7511;SDS011;9999;48.780;9.146;2023-04-06T13:21:14;7.13;;;3.50;;
7511;SDS011;9999;48.780;9.146;2023-04-06T13:23:43;4.53;;;2.90;;
7511;SDS011;9999;48.780;9.146;2023-04-06T13:26:10;4.68;;;3.20;;
7511;SDS011;9999;48.780;9.146;2023-04-06T13:28:38;7.45;;;3.40;;
7511;SDS011;9999;48.780;9.146;2023-04-06T13:31:07;4.50;;;4.05;;
7511;SDS011;9999;48.780;9.146;2023-04-06T13:33:35;6.28;;;3.05;;
7511;SDS011;9999;48.780;9.146;2023-04-06T13:36:02;3.70;;;3.03;;
7511;SDS011;9999;48.780;9.146;2023-04-06T13:38:29;6.75;;;3.78;;
7511;SDS011;9999;48.780;9.146;2023-04-06T13:40:56;4.10;;;2.80;;
7511;SDS011;9999;48.780;9.146;2023-04-06T13:43:23;4.63;;;3.38;;
7511;SDS011;9999;48.780;9.146;2023-04-06T13:45:52;6.35;;;3.10;;
7511;SDS011;9999;48.780;9.146;2023-04-06T13:48:21;6.25;;;3.67;;
7511;SDS011;9999;48.780;9.146;2023-04-06T13:50:48;6.03;;;3.63;;
7511;SDS011;9999;48.780;9.146;2023-04-06T13:53:16;8.95;;;3.53;;
7511;SDS011;9999;48.780;9.146;2023-04-06T13:55:43;6.15;;;3.15;;
7511;SDS011;9999;48.780;9.146;2023-04-06T13:58:10;4.43;;;2.50;;
7511;SDS011;9999;48.780;9.146;2023-04-06T14:00:37;4.40;;;2.88;;
7511;SDS011;9999;48.780;9.146;2023-04-06T14:03:05;4.82;;;3.28;;
7511;SDS011;9999;48.780;9.146;2023-04-06T14:05:33;4.15;;;3.40;;
7511;SDS011;9999;48.780;9.146;2023-04-06T14:08:01;4.25;;;2.72;;
7511;SDS011;9999;48.780;9.146;2023-04-06T14:10:28;5.88;;;3.50;;
7511;SDS011;9999;48.780;9.146;2023-04-06T14:12:55;4.32;;;2.80;;
7511;SDS011;9999;48.780;9.146;2023-04-06T14:15:23;5.45;;;3.45;;
7511;SDS011;9999;48.780;9.146;2023-04-06T14:17:50;5.55;;;3.40;;
7511;SDS011;9999;48.780;9.146;2023-04-06T14:20:17;4.65;;;3.33;;
7511;SDS011;9999;48.780;9.146;2023-04-06T14:22:45;4.13;;;3.10;;
7511;SDS011;9999;48.780;9.146;2023-04-06T14:25:14;5.40;;;3.08;;
7511;SDS011;9999;48.780;9.146;2023-04-06T14:27:41;5.65;;;3.42;;
7511;SDS011;9999;48.780;9.146;2023-04-06T14:30:09;7.20;;;3.15;;
7511;SDS011;9999;48.780;9.146;2023-04-06T14:32:37;3.00;;;2.33;;
7511;SDS011;9999;48.780;9.146;2023-04-06T14:35:04;6.95;;;3.58;;
7511;SDS011;9999;48.780;9.146;2023-04-06T14:37:31;5.45;;;3.58;;
7511;SDS011;9999;48.780;9.146;2023-04-06T14:39:59;4.40;;;3.00;;
7511;SDS011;9999;48.780;9.146;2023-04-06T14:42:26;4.95;;;3.13;;
7511;SDS011;9999;48.780;9.146;2023-04-06T14:44:53;5.43;;;3.67;;
7511;SDS011;9999;48.780;9.146;2023-04-06T14:47:20;5.40;;;3.58;;
7511;SDS011;9999;48.780;9.146;2023-04-06T14:49:48;3.53;;;2.90;;
7511;SDS011;9999;48.780;9.146;2023-04-06T14:52:18;3.95;;;3.20;;
7511;SDS011;9999;48.780;9.146;2023-04-06T14:54:45;6.20;;;3.63;;
7511;SDS011;9999;48.780;9.146;2023-04-06T14:57:13;4.93;;;3.38;;
7511;SDS011;9999;48.780;9.146;2023-04-06T14:59:40;4.88;;;3.25;;
7511;SDS011;9999;48.780;9.146;2023-04-06T15:02:07;6.70;;;3.17;;
7511;SDS011;9999;48.780;9.146;2023-04-06T15:04:34;4.90;;;3.40;;
7511;SDS011;9999;48.780;9.146;2023-04-06T15:07:01;5.35;;;3.20;;
7511;SDS011;9999;48.780;9.146;2023-04-06T15:09:28;8.52;;;3.80;;
7511;SDS011;9999;48.780;9.146;2023-04-06T15:11:55;6.28;;;3.05;;
7511;SDS011;9999;48.780;9.146;2023-04-06T15:14:23;6.38;;;3.28;;
7511;SDS011;9999;48.780;9.146;2023-04-06T15:16:50;3.55;;;3.20;;
7511;SDS011;9999;48.780;9.146;2023-04-06T15:19:17;4.80;;;3.00;;
7511;SDS011;9999;48.780;9.146;2023-04-06T15:21:44;5.22;;;3.45;;
7511;SDS011;9999;48.780;9.146;2023-04-06T15:24:11;5.15;;;2.72;;